createdAt,value
2019-02-25T00:00:51.654Z,63.10
2019-02-25T00:03:22.886Z,63.30
2019-02-25T00:05:52.366Z,63.20
2019-02-25T00:08:21.761Z,63.40
2019-02-25T00:10:51.168Z,63.20
2019-02-25T00:13:20.536Z,62.60
2019-02-25T00:15:51.464Z,63.20
2019-02-25T00:18:25.282Z,62.90
2019-02-25T00:20:55.019Z,63.10
2019-02-25T00:23:24.353Z,63.60
2019-02-25T00:25:53.704Z,63.80
2019-02-25T00:28:23.047Z,63.70
2019-02-25T00:30:52.639Z,63.40
2019-02-25T00:33:21.974Z,63.40
2019-02-25T00:35:51.414Z,63.60
2019-02-25T00:38:20.791Z,64.00
2019-02-25T00:40:50.131Z,64.00
2019-02-25T00:43:19.554Z,63.60
2019-02-25T00:45:49.208Z,63.40
2019-02-25T00:48:19.362Z,64.00
2019-02-25T00:50:48.840Z,64.50
2019-02-25T00:53:18.404Z,64.70
2019-02-25T00:55:48.024Z,64.90
2019-02-25T00:58:17.420Z,65.30
2019-02-25T01:00:46.788Z,65.20
2019-02-25T01:03:16.176Z,64.70
2019-02-25T01:05:45.520Z,64.00
2019-02-25T01:08:14.938Z,64.20
2019-02-25T01:10:44.676Z,64.50
2019-02-25T01:13:14.096Z,64.80
2019-02-25T01:15:43.503Z,64.70
2019-02-25T01:18:12.823Z,65.10
2019-02-25T01:20:42.363Z,65.20
2019-02-25T01:23:11.767Z,64.70
2019-02-25T01:25:41.177Z,65.10
2019-02-25T01:28:10.514Z,65.10
2019-02-25T01:30:39.973Z,65.20
2019-02-25T01:33:09.575Z,65.10
2019-02-25T01:35:39.115Z,65.00
2019-02-25T01:38:09.869Z,65.20
2019-02-25T01:40:39.272Z,65.80
2019-02-25T01:43:09.677Z,65.70
2019-02-25T01:45:39.285Z,65.40
2019-02-25T01:48:09.155Z,65.40
2019-02-25T01:50:38.535Z,65.30
2019-02-25T01:53:08.854Z,65.20
2019-02-25T01:55:38.255Z,65.20
2019-02-25T01:58:09.188Z,65.80
2019-02-25T02:00:38.891Z,65.40
2019-02-25T02:03:08.918Z,65.40
2019-02-25T02:05:38.311Z,65.50
2019-02-25T02:08:09.389Z,65.90
2019-02-25T02:14:07.543Z,66.30
2019-02-25T02:16:36.894Z,66.80
2019-02-25T02:19:06.291Z,67.20
2019-02-25T02:21:35.991Z,67.50
2019-02-25T02:24:05.388Z,66.80
2019-02-25T02:26:34.724Z,66.70
2019-02-25T02:29:04.392Z,66.50
2019-02-25T02:31:34.057Z,66.60
2019-02-25T02:34:03.617Z,66.80
2019-02-25T02:36:33.026Z,67.10
2019-02-25T02:39:02.588Z,67.00
2019-02-25T02:41:53.434Z,68.00
2019-02-25T02:44:23.123Z,67.40
2019-02-25T02:47:15.177Z,67.50
2019-02-25T02:49:44.582Z,67.90
2019-02-25T02:52:13.941Z,67.90
2019-02-25T02:54:43.408Z,68.30
2019-02-25T02:57:14.274Z,67.90
2019-02-25T02:59:43.619Z,67.40
2019-02-25T03:02:12.967Z,67.30
2019-02-25T03:04:42.445Z,67.10
2019-02-25T03:07:12.050Z,67.30
2019-02-25T03:09:41.480Z,67.70
2019-02-25T03:12:10.923Z,67.60
2019-02-25T03:14:40.263Z,67.40
2019-02-25T03:17:09.683Z,67.00
2019-02-25T03:19:39.108Z,67.00
2019-02-25T03:22:08.643Z,67.00
2019-02-25T03:24:38.067Z,67.50
2019-02-25T03:27:07.443Z,67.40
2019-02-25T03:29:36.785Z,67.70
2019-02-25T03:32:06.354Z,68.30
2019-02-25T03:34:35.785Z,68.10
2019-02-25T03:37:05.137Z,68.40
2019-02-25T03:39:34.556Z,68.40
2019-02-25T03:42:06.799Z,67.90
2019-02-25T03:44:36.137Z,68.20
2019-02-25T03:47:05.754Z,68.50
2019-02-25T03:49:35.166Z,68.70
2019-02-25T03:52:04.647Z,69.60
2019-02-25T03:54:34.083Z,69.30
2019-02-25T03:57:03.648Z,69.00
2019-02-25T03:59:33.077Z,68.80
2019-02-25T04:02:03.802Z,69.30
2019-02-25T04:04:33.309Z,69.80
2019-02-25T04:07:02.835Z,69.70
2019-02-25T04:09:32.205Z,69.70
2019-02-25T04:12:01.903Z,68.80
2019-02-25T04:14:31.379Z,68.90
2019-02-25T04:17:00.949Z,69.30
2019-02-25T04:19:30.280Z,69.80
2019-02-25T04:21:59.839Z,70.10
2019-02-25T04:24:29.221Z,70.00
2019-02-25T04:26:58.981Z,69.60
2019-02-25T04:29:29.748Z,69.40
2019-02-25T04:31:59.087Z,69.00
2019-02-25T04:34:28.422Z,68.60
2019-02-25T04:36:58.072Z,69.10
2019-02-25T04:39:27.457Z,69.70
2019-02-25T04:41:56.971Z,70.00
2019-02-25T04:44:26.923Z,70.60
2019-02-25T04:46:57.239Z,70.10
2019-02-25T04:49:26.783Z,70.10
2019-02-25T04:51:56.465Z,70.00
2019-02-25T04:54:25.796Z,69.40
2019-02-25T04:56:55.910Z,69.60
2019-02-25T04:59:25.586Z,69.50
2019-02-25T05:01:54.985Z,69.30
2019-02-25T05:04:24.629Z,69.50
2019-02-25T05:06:54.442Z,69.30
2019-02-25T05:09:23.880Z,69.10
2019-02-25T05:11:53.609Z,69.20
2019-02-25T05:14:23.429Z,69.40
2019-02-25T05:16:53.628Z,69.60
2019-02-25T05:19:23.211Z,69.80
2019-02-25T05:21:53.339Z,70.10
2019-02-25T05:24:22.931Z,69.90
2019-02-25T05:26:52.506Z,69.90
2019-02-25T05:29:21.923Z,70.00
2019-02-25T05:31:51.584Z,70.10
2019-02-25T05:34:21.319Z,70.20
2019-02-25T05:36:50.820Z,70.00
2019-02-25T05:39:20.460Z,70.20
2019-02-25T05:41:50.202Z,69.90
2019-02-25T05:44:20.006Z,70.30
2019-02-25T05:46:49.765Z,71.20
2019-02-25T05:49:19.386Z,70.90
2019-02-25T05:55:14.479Z,71.00
2019-02-25T05:57:44.246Z,71.40
2019-02-25T06:00:19.526Z,71.40
2019-02-25T06:02:48.845Z,71.80
2019-02-25T06:05:18.396Z,72.40
2019-02-25T06:07:47.820Z,71.90
2019-02-25T06:10:17.962Z,71.90
2019-02-25T06:12:47.455Z,71.80
2019-02-25T06:15:19.086Z,71.80
2019-02-25T06:17:48.572Z,72.00
2019-02-25T06:20:19.076Z,72.00
2019-02-25T06:22:48.465Z,71.80
2019-02-25T06:25:18.077Z,71.80
2019-02-25T06:27:47.556Z,71.60
2019-02-25T06:30:24.283Z,71.50
2019-02-25T06:32:53.713Z,71.50
2019-02-25T06:35:23.558Z,71.80
2019-02-25T06:37:53.019Z,71.50
2019-02-25T06:40:22.712Z,71.80
2019-02-25T06:42:52.207Z,71.60
2019-02-25T06:45:31.196Z,71.40
2019-02-25T06:48:00.817Z,71.30
2019-02-25T06:50:32.294Z,71.80
2019-02-25T06:53:07.100Z,72.30
2019-02-25T06:55:37.964Z,72.20
2019-02-25T06:58:08.004Z,71.40
2019-02-25T07:00:38.390Z,71.70
2019-02-25T07:03:10.005Z,72.80
2019-02-25T07:05:47.512Z,72.90
2019-02-25T07:08:25.669Z,72.30
2019-02-25T07:10:56.868Z,72.40
2019-02-25T07:13:30.923Z,72.20
2019-02-25T07:16:12.088Z,72.10
2019-02-25T07:18:52.400Z,71.90
2019-02-25T07:21:30.011Z,72.00
2019-02-25T07:24:16.347Z,72.20
2019-02-25T07:27:00.090Z,72.10
2019-02-25T07:29:31.400Z,72.00
2019-02-25T07:32:14.777Z,71.50
2019-02-25T07:34:49.137Z,71.90
2019-02-25T07:37:20.887Z,71.80
2019-02-25T07:40:07.263Z,71.80
2019-02-25T07:42:38.340Z,71.70
2019-02-25T07:45:12.993Z,71.60
2019-02-25T07:47:46.964Z,71.60
2019-02-25T07:50:21.265Z,71.80
2019-02-25T07:52:56.776Z,72.30
2019-02-25T07:55:27.946Z,71.70
2019-02-25T07:58:05.711Z,71.80
2019-02-25T08:00:40.014Z,71.70
2019-02-25T08:03:20.086Z,72.10
2019-02-25T08:06:06.195Z,72.00
2019-02-25T08:08:53.901Z,71.80
2019-02-25T08:11:40.999Z,71.90
2019-02-25T08:14:12.371Z,71.60
2019-02-25T08:16:52.479Z,71.50
2019-02-25T08:19:29.413Z,72.20
2019-02-25T08:22:16.767Z,72.30
2019-02-25T08:24:50.547Z,71.90
2019-02-25T08:27:39.892Z,73.10
2019-02-25T08:30:32.508Z,73.60
2019-02-25T08:33:15.525Z,73.40
2019-02-25T08:36:10.276Z,70.80
2019-02-25T08:38:52.867Z,73.40
2019-02-25T08:41:36.160Z,73.60
2019-02-25T08:44:10.162Z,71.60
2019-02-25T08:46:50.074Z,72.80
2019-02-25T08:49:23.970Z,72.70
2019-02-25T08:51:53.476Z,72.40
2019-02-25T08:54:23.055Z,72.00
2019-02-25T08:56:52.485Z,71.60
2019-02-25T08:59:22.968Z,72.40
2019-02-25T09:01:52.526Z,72.30
2019-02-25T09:04:22.283Z,71.90
2019-02-25T09:06:51.699Z,72.40
2019-02-25T09:09:28.344Z,72.00
2019-02-25T09:11:59.583Z,70.30
2019-02-25T09:14:34.607Z,72.20
2019-02-25T09:17:06.435Z,72.00
2019-02-25T09:19:36.268Z,71.90
2019-02-25T09:22:06.759Z,71.80
2019-02-25T09:24:40.795Z,71.70
2019-02-25T09:27:10.331Z,70.50
2019-02-25T09:29:40.136Z,71.20
2019-02-25T09:32:09.882Z,69.40
2019-02-25T09:34:41.503Z,70.40
2019-02-25T09:37:11.732Z,70.50
2019-02-25T09:39:41.138Z,69.90
2019-02-25T09:42:12.301Z,69.60
2019-02-25T09:44:41.917Z,69.60
2019-02-25T09:47:11.467Z,68.80
2019-02-25T09:49:41.251Z,67.00
2019-02-25T09:52:11.001Z,66.20
2019-02-25T09:54:40.977Z,66.20
2019-02-25T09:57:11.323Z,67.40
2019-02-25T09:59:40.801Z,65.90
2019-02-25T10:02:10.494Z,66.00
2019-02-25T10:04:40.595Z,65.20
2019-02-25T10:07:09.897Z,64.00
2019-02-25T10:09:39.248Z,63.90
2019-02-25T10:12:08.950Z,64.10
2019-02-25T10:14:38.880Z,62.00
2019-02-25T10:17:08.291Z,60.60
2019-02-25T10:19:39.710Z,59.50
2019-02-25T10:22:10.482Z,58.70
2019-02-25T10:24:40.043Z,58.20
2019-02-25T10:27:09.658Z,57.10
2019-02-25T10:29:39.118Z,56.00
2019-02-25T10:32:08.498Z,54.40
2019-02-25T10:34:37.945Z,53.70
2019-02-25T10:37:08.884Z,52.30
2019-02-25T10:39:38.428Z,51.10
2019-02-25T10:42:08.078Z,50.40
2019-02-25T10:44:38.259Z,50.20
2019-02-25T10:47:08.540Z,49.10
2019-02-25T10:49:39.264Z,49.10
2019-02-25T10:52:10.706Z,48.60
2019-02-25T10:54:40.620Z,47.80
2019-02-25T10:57:10.391Z,46.00
2019-02-25T10:59:41.480Z,45.80
2019-02-25T11:02:13.687Z,45.50
2019-02-25T11:04:43.155Z,45.10
2019-02-25T11:07:15.695Z,44.90
2019-02-25T11:09:48.345Z,45.50
2019-02-25T11:12:18.290Z,44.00
2019-02-25T11:14:47.754Z,43.80
2019-02-25T11:17:18.343Z,42.50
2019-02-25T11:19:48.767Z,41.70
2019-02-25T11:22:18.196Z,42.00
2019-02-25T11:24:49.766Z,41.80
2019-02-25T11:27:20.098Z,40.90
2019-02-25T11:29:49.663Z,40.80
2019-02-25T11:32:21.458Z,40.20
2019-02-25T11:34:51.124Z,40.10
2019-02-25T11:37:22.481Z,39.80
2019-02-25T11:39:54.991Z,39.10
2019-02-25T11:42:25.069Z,40.60
2019-02-25T11:44:59.206Z,40.80
2019-02-25T11:47:28.605Z,41.40
2019-02-25T11:49:58.395Z,41.90
2019-02-25T11:52:28.299Z,42.20
2019-02-25T11:54:58.039Z,41.80
2019-02-25T11:57:27.810Z,42.20
2019-02-25T11:59:57.260Z,40.40
2019-02-25T12:02:26.763Z,41.10
2019-02-25T12:04:56.588Z,40.90
2019-02-25T12:07:26.567Z,42.30
2019-02-25T12:09:56.274Z,43.00
2019-02-25T12:12:25.727Z,46.20
2019-02-25T12:14:55.195Z,46.40
2019-02-25T12:17:24.899Z,46.10
2019-02-25T12:19:54.662Z,46.20
2019-02-25T12:22:24.122Z,46.60
2019-02-25T12:24:53.579Z,45.50
2019-02-25T12:27:23.256Z,46.20
2019-02-25T12:29:52.945Z,47.40
2019-02-25T12:32:23.478Z,46.20
2019-02-25T12:34:53.146Z,45.40
2019-02-25T12:37:22.672Z,44.70
2019-02-25T12:39:52.198Z,44.60
2019-02-25T12:42:22.956Z,44.50
2019-02-25T12:44:52.373Z,43.50
2019-02-25T12:47:23.334Z,42.60
2019-02-25T12:49:52.741Z,43.10
2019-02-25T12:52:22.107Z,42.90
2019-02-25T12:54:51.587Z,44.40
2019-02-25T12:57:21.227Z,48.10
2019-02-25T12:59:50.789Z,49.70
2019-02-25T13:02:20.232Z,51.10
2019-02-25T13:04:49.666Z,50.80
2019-02-25T13:07:20.082Z,51.10
2019-02-25T13:09:49.513Z,50.80
2019-02-25T13:12:20.170Z,50.60
2019-02-25T13:14:50.030Z,49.70
2019-02-25T13:17:19.742Z,50.40
2019-02-25T13:19:49.224Z,49.30
2019-02-25T13:22:18.923Z,49.30
2019-02-25T13:24:51.400Z,49.20
2019-02-25T13:27:22.538Z,49.30
2019-02-25T13:29:53.109Z,48.30
2019-02-25T13:32:25.035Z,48.70
2019-02-25T13:34:57.743Z,49.10
2019-02-25T13:37:27.673Z,49.50
2019-02-25T13:39:57.257Z,48.70
2019-02-25T13:42:26.898Z,49.20
2019-02-25T13:45:00.839Z,48.90
2019-02-25T13:47:32.413Z,49.70
2019-02-25T13:50:07.333Z,48.90
2019-02-25T13:52:47.261Z,48.10
2019-02-25T13:55:12.878Z,48.20
2019-02-25T13:57:49.629Z,48.90
2019-02-25T14:00:29.708Z,49.20
2019-02-25T14:03:00.167Z,48.40
2019-02-25T14:05:30.835Z,48.20
2019-02-25T14:08:09.393Z,48.40
2019-02-25T14:10:47.022Z,48.20
2019-02-25T14:13:16.828Z,48.50
2019-02-25T14:15:48.033Z,48.00
2019-02-25T14:18:17.540Z,48.60
2019-02-25T14:20:49.520Z,49.10
2019-02-25T14:23:22.372Z,48.60
2019-02-25T14:25:52.452Z,48.20
2019-02-25T14:28:23.927Z,48.10
2019-02-25T14:30:54.924Z,48.20
2019-02-25T14:33:25.335Z,48.30
2019-02-25T14:35:57.429Z,48.60
2019-02-25T14:38:29.443Z,48.50
2019-02-25T14:41:01.865Z,47.90
2019-02-25T14:43:37.125Z,47.60
2019-02-25T14:46:07.668Z,47.60
2019-02-25T14:48:37.435Z,47.10
2019-02-25T14:51:08.743Z,44.70
2019-02-25T14:53:38.610Z,44.80
2019-02-25T14:56:09.083Z,43.10
2019-02-25T14:58:40.229Z,42.70
2019-02-25T15:01:10.044Z,42.10
2019-02-25T15:03:40.110Z,42.30
2019-02-25T15:06:09.718Z,43.60
2019-02-25T15:08:40.628Z,43.20
2019-02-25T15:11:11.338Z,42.90
2019-02-25T15:13:41.574Z,43.00
2019-02-25T15:16:11.145Z,43.30
2019-02-25T15:18:40.703Z,45.90
2019-02-25T15:21:11.282Z,46.20
2019-02-25T15:23:42.236Z,47.10
2019-02-25T15:26:11.877Z,48.10
2019-02-25T15:28:41.458Z,48.10
2019-02-25T15:31:12.049Z,47.40
2019-02-25T15:33:42.510Z,46.60
2019-02-25T15:36:13.614Z,46.20
2019-02-25T15:38:43.747Z,46.40
2019-02-25T15:41:13.854Z,47.70
2019-02-25T15:43:44.384Z,48.50
2019-02-25T15:46:16.640Z,51.40
2019-02-25T15:48:48.819Z,53.10
2019-02-25T15:51:18.553Z,54.20
2019-02-25T15:53:49.000Z,54.30
2019-02-25T15:56:19.459Z,55.30
2019-02-25T15:58:52.216Z,55.60
2019-02-25T16:01:21.782Z,56.10
2019-02-25T16:03:51.555Z,55.80
2019-02-25T16:06:24.998Z,55.80
2019-02-25T16:08:54.327Z,55.70
2019-02-25T16:11:26.982Z,55.70
2019-02-25T16:13:57.829Z,56.50
2019-02-25T16:16:29.800Z,57.70
2019-02-25T16:18:59.405Z,58.40
2019-02-25T16:24:48.684Z,59.70
2019-02-25T16:27:23.138Z,60.60
2019-02-25T16:29:59.967Z,60.60
2019-02-25T16:32:29.751Z,61.60
2019-02-25T16:35:02.791Z,63.10
2019-02-25T16:37:33.405Z,62.70
2019-02-25T16:40:05.774Z,62.40
2019-02-25T16:42:36.899Z,63.20
2019-02-25T16:45:14.112Z,63.90
2019-02-25T16:47:48.933Z,64.90
2019-02-25T16:50:19.286Z,64.50
2019-02-25T16:52:50.051Z,63.50
2019-02-25T16:55:23.341Z,63.30
2019-02-25T16:57:55.943Z,65.50
2019-02-25T17:00:29.904Z,66.30
2019-02-25T17:03:01.391Z,64.70
2019-02-25T17:05:30.159Z,64.60
2019-02-25T17:08:01.305Z,64.80
2019-02-25T17:10:35.986Z,66.20
2019-02-25T17:13:14.266Z,67.10
2019-02-25T17:15:46.190Z,67.80
2019-02-25T17:18:16.037Z,69.90
2019-02-25T17:20:49.783Z,68.60
2019-02-25T17:23:19.813Z,69.00
2019-02-25T17:25:49.544Z,67.70
2019-02-25T17:28:20.229Z,67.20
2019-02-25T17:30:55.355Z,67.10
2019-02-25T17:33:26.259Z,67.20
2019-02-25T17:35:56.472Z,67.00
2019-02-25T17:38:26.515Z,67.30
2019-02-25T17:40:59.219Z,67.10
2019-02-25T17:43:29.150Z,67.00
2019-02-25T17:46:00.346Z,67.90
2019-02-25T17:48:30.221Z,68.20
2019-02-25T17:51:01.506Z,68.20
2019-02-25T17:53:32.638Z,68.10
2019-02-25T17:56:02.513Z,69.20
2019-02-25T17:58:32.268Z,71.30
2019-02-25T18:01:03.292Z,72.20
2019-02-25T18:03:33.658Z,70.00
2019-02-25T18:06:07.073Z,68.90
2019-02-25T18:08:39.232Z,68.50
2019-02-25T18:11:09.296Z,68.50
2019-02-25T18:13:38.833Z,68.60
2019-02-25T18:16:10.214Z,69.00
2019-02-25T18:18:41.312Z,69.00
2019-02-25T18:21:11.486Z,68.50
2019-02-25T18:23:41.022Z,68.50
2019-02-25T18:26:12.455Z,68.60
2019-02-25T18:28:43.586Z,68.60
2019-02-25T18:31:14.179Z,68.70
2019-02-25T18:33:44.727Z,68.70
2019-02-25T18:36:15.410Z,68.80
2019-02-25T18:38:46.382Z,68.80
2019-02-25T18:41:16.506Z,68.40
2019-02-25T18:43:47.317Z,68.40
2019-02-25T18:46:19.004Z,68.30
2019-02-25T18:48:48.856Z,68.90
2019-02-25T18:51:19.188Z,69.40
2019-02-25T18:53:48.704Z,69.20
2019-02-25T18:56:20.464Z,69.20
2019-02-25T18:58:49.866Z,71.70
2019-02-25T19:01:25.099Z,70.80
2019-02-25T19:03:56.743Z,69.60
2019-02-25T19:06:26.164Z,69.40
2019-02-25T19:08:58.308Z,69.70
2019-02-25T19:11:28.455Z,69.90
2019-02-25T19:14:01.826Z,72.30
2019-02-25T19:16:29.607Z,71.50
2019-02-25T19:19:03.616Z,69.90
2019-02-25T19:21:31.931Z,69.40
2019-02-25T19:24:03.600Z,68.90
2019-02-25T19:26:33.973Z,69.00
2019-02-25T19:29:03.462Z,69.10
2019-02-25T19:31:33.225Z,69.10
2019-02-25T19:34:02.976Z,69.10
2019-02-25T19:36:35.016Z,69.20
2019-02-25T19:39:09.381Z,69.20
2019-02-25T19:41:39.609Z,69.30
2019-02-25T19:44:10.647Z,69.20
2019-02-25T19:46:40.248Z,69.30
2019-02-25T19:49:11.585Z,69.00
2019-02-25T19:51:43.281Z,69.20
2019-02-25T19:54:13.937Z,69.20
2019-02-25T19:56:45.968Z,69.70
2019-02-25T19:59:15.667Z,70.40
2019-02-25T20:01:45.356Z,71.50
2019-02-25T20:04:16.474Z,70.40
2019-02-25T20:06:47.159Z,69.80
2019-02-25T20:09:21.619Z,69.50
2019-02-25T20:11:52.082Z,69.20
2019-02-25T20:14:21.980Z,70.10
2019-02-25T20:16:52.814Z,70.00
2019-02-25T20:19:23.346Z,69.80
2019-02-25T20:21:54.705Z,69.60
2019-02-25T20:24:25.630Z,69.40
2019-02-25T20:26:57.824Z,69.70
2019-02-25T20:29:27.312Z,69.90
2019-02-25T20:31:58.266Z,69.60
2019-02-25T20:34:30.447Z,69.80
2019-02-25T20:37:03.963Z,69.80
2019-02-25T20:39:35.925Z,70.00
2019-02-25T20:42:06.861Z,70.10
2019-02-25T20:44:37.519Z,70.00
2019-02-25T20:47:07.563Z,70.10
2019-02-25T20:49:38.227Z,70.30
2019-02-25T20:52:08.037Z,70.30
2019-02-25T20:54:40.592Z,70.20
2019-02-25T20:57:10.092Z,70.20
2019-02-25T20:59:40.052Z,70.30
2019-02-25T21:02:13.673Z,70.40
2019-02-25T21:04:43.871Z,70.30
2019-02-25T21:07:13.900Z,70.20
2019-02-25T21:09:44.204Z,70.30
2019-02-25T21:12:15.688Z,70.50
2019-02-25T21:15:01.509Z,70.50
2019-02-25T21:17:56.967Z,70.70
2019-02-25T21:20:40.787Z,70.90
2019-02-25T21:23:12.458Z,70.90
2019-02-25T21:25:44.162Z,70.60
2019-02-25T21:28:13.715Z,71.10
2019-02-25T21:30:44.142Z,70.30
2019-02-25T21:33:17.348Z,69.90
2019-02-25T21:35:46.295Z,70.20
2019-02-25T21:38:16.044Z,70.50
2019-02-25T21:40:47.901Z,70.50
2019-02-25T21:43:18.787Z,71.70
2019-02-25T21:45:52.166Z,72.30
2019-02-25T21:48:25.114Z,71.60
2019-02-25T21:50:53.447Z,71.60
2019-02-25T21:53:22.837Z,71.20
2019-02-25T21:55:53.514Z,71.70
2019-02-25T21:58:25.224Z,71.50
2019-02-25T22:00:55.540Z,71.70
2019-02-25T22:03:24.992Z,70.80
2019-02-25T22:05:56.190Z,70.90
2019-02-25T22:08:29.098Z,70.80
2019-02-25T22:11:11.750Z,70.90
2019-02-25T22:13:31.060Z,71.20
2019-02-25T22:16:03.370Z,71.30
2019-02-25T22:18:34.140Z,71.20
2019-02-25T22:21:07.169Z,71.20
2019-02-25T22:23:37.043Z,71.00
2019-02-25T22:26:06.258Z,72.40
2019-02-25T22:28:37.594Z,72.20
2019-02-25T22:31:10.348Z,71.70
2019-02-25T22:33:38.931Z,71.60
2019-02-25T22:36:08.516Z,71.30
2019-02-25T22:38:37.840Z,72.30
2019-02-25T22:41:07.306Z,71.40
2019-02-25T22:43:39.152Z,71.30
2019-02-25T22:46:11.714Z,70.70
2019-02-25T22:48:43.173Z,71.90
2019-02-25T22:51:11.627Z,72.60
2019-02-25T22:53:41.012Z,72.40
2019-02-25T22:56:13.403Z,72.20
2019-02-25T22:58:42.973Z,72.90
2019-02-25T23:01:17.544Z,72.70
2019-02-25T23:03:45.563Z,72.10
2019-02-25T23:06:17.736Z,73.00
2019-02-25T23:08:48.868Z,72.80
2019-02-25T23:11:19.795Z,71.50
2019-02-25T23:13:50.376Z,71.40
2019-02-25T23:16:22.515Z,71.60
2019-02-25T23:18:51.207Z,72.90
2019-02-25T23:21:23.941Z,72.40
2019-02-25T23:23:55.575Z,72.60
2019-02-25T23:26:22.744Z,72.60
2019-02-25T23:28:53.670Z,72.90
2019-02-25T23:31:23.548Z,72.80
2019-02-25T23:33:53.670Z,72.20
2019-02-25T23:36:24.771Z,71.30
2019-02-25T23:38:54.868Z,71.20
2019-02-25T23:41:25.559Z,71.50
2019-02-25T23:43:55.038Z,71.50
2019-02-25T23:46:27.236Z,71.80
2019-02-25T23:48:55.779Z,72.00
2019-02-25T23:51:25.394Z,71.60
2019-02-25T23:53:55.913Z,71.40
2019-02-25T23:56:27.436Z,72.80
2019-02-25T23:58:56.950Z,75.00
